sensor_id;sensor_type;location;lat;lon;timestamp;P1;durP1;ratioP1;P2;durP2;ratioP2
5869;SDS011;2961;47.702;9.410;2023-11-18T00:02:18;4.13;;;3.83;;
5869;SDS011;2961;47.702;9.410;2023-11-18T00:04:45;4.43;;;4.07;;
5869;SDS011;2961;47.702;9.410;2023-11-18T00:07:12;4.63;;;4.23;;
5869;SDS011;2961;47.702;9.410;2023-11-18T00:09:39;4.90;;;4.50;;
5869;SDS011;2961;47.702;9.410;2023-11-18T00:12:08;8.47;;;4.30;;
5869;SDS011;2961;47.702;9.410;2023-11-18T00:14:36;4.53;;;4.10;;
5869;SDS011;2961;47.702;9.410;2023-11-18T00:17:03;6.80;;;4.10;;
5869;SDS011;2961;47.702;9.410;2023-11-18T00:19:29;4.20;;;3.90;;
5869;SDS011;2961;47.702;9.410;2023-11-18T00:21:56;5.13;;;3.90;;
5869;SDS011;2961;47.702;9.410;2023-11-18T00:24:23;3.60;;;3.23;;
5869;SDS011;2961;47.702;9.410;2023-11-18T00:26:50;4.70;;;4.30;;
5869;SDS011;2961;47.702;9.410;2023-11-18T00:29:17;4.80;;;4.40;;
5869;SDS011;2961;47.702;9.410;2023-11-18T00:31:45;4.80;;;4.40;;
5869;SDS011;2961;47.702;9.410;2023-11-18T00:34:11;7.63;;;4.73;;
5869;SDS011;2961;47.702;9.410;2023-11-18T00:36:38;6.20;;;5.60;;
5869;SDS011;2961;47.702;9.410;2023-11-18T00:39:05;6.10;;;5.57;;
5869;SDS011;2961;47.702;9.410;2023-11-18T00:41:32;5.70;;;5.20;;
5869;SDS011;2961;47.702;9.410;2023-11-18T00:43:59;4.97;;;4.57;;
5869;SDS011;2961;47.702;9.410;2023-11-18T00:46:25;6.30;;;5.60;;
5869;SDS011;2961;47.702;9.410;2023-11-18T00:48:53;6.30;;;5.67;;
5869;SDS011;2961;47.702;9.410;2023-11-18T00:51:23;5.83;;;5.33;;
5869;SDS011;2961;47.702;9.410;2023-11-18T00:53:50;7.23;;;6.20;;
5869;SDS011;2961;47.702;9.410;2023-11-18T00:56:19;6.63;;;6.00;;
5869;SDS011;2961;47.702;9.410;2023-11-18T00:58:46;8.57;;;6.60;;
5869;SDS011;2961;47.702;9.410;2023-11-18T01:01:13;8.40;;;6.70;;
5869;SDS011;2961;47.702;9.410;2023-11-18T01:03:43;8.23;;;6.97;;
5869;SDS011;2961;47.702;9.410;2023-11-18T01:06:11;12.10;;;6.90;;
5869;SDS011;2961;47.702;9.410;2023-11-18T01:08:38;8.20;;;6.33;;
5869;SDS011;2961;47.702;9.410;2023-11-18T01:11:05;6.73;;;5.77;;
5869;SDS011;2961;47.702;9.410;2023-11-18T01:13:32;6.73;;;6.03;;
5869;SDS011;2961;47.702;9.410;2023-11-18T01:15:59;8.23;;;6.83;;
5869;SDS011;2961;47.702;9.410;2023-11-18T01:18:26;16.13;;;6.37;;
5869;SDS011;2961;47.702;9.410;2023-11-18T01:20:53;8.33;;;6.60;;
5869;SDS011;2961;47.702;9.410;2023-11-18T01:23:21;7.20;;;6.50;;
5869;SDS011;2961;47.702;9.410;2023-11-18T01:25:48;6.33;;;5.73;;
5869;SDS011;2961;47.702;9.410;2023-11-18T01:28:16;8.70;;;6.20;;
5869;SDS011;2961;47.702;9.410;2023-11-18T01:30:42;8.30;;;6.97;;
5869;SDS011;2961;47.702;9.410;2023-11-18T01:33:10;8.60;;;6.47;;
5869;SDS011;2961;47.702;9.410;2023-11-18T01:35:37;8.27;;;7.40;;
5869;SDS011;2961;47.702;9.410;2023-11-18T01:38:04;7.77;;;6.10;;
5869;SDS011;2961;47.702;9.410;2023-11-18T01:40:34;9.83;;;7.27;;
5869;SDS011;2961;47.702;9.410;2023-11-18T01:43:00;9.20;;;7.03;;
5869;SDS011;2961;47.702;9.410;2023-11-18T01:45:30;11.93;;;8.73;;
5869;SDS011;2961;47.702;9.410;2023-11-18T01:47:56;8.43;;;7.10;;
5869;SDS011;2961;47.702;9.410;2023-11-18T01:50:23;8.67;;;7.17;;
5869;SDS011;2961;47.702;9.410;2023-11-18T01:52:50;7.60;;;6.80;;
5869;SDS011;2961;47.702;9.410;2023-11-18T01:55:18;8.77;;;6.63;;
5869;SDS011;2961;47.702;9.410;2023-11-18T01:57:48;7.67;;;6.20;;
5869;SDS011;2961;47.702;9.410;2023-11-18T02:00:16;8.57;;;6.37;;
5869;SDS011;2961;47.702;9.410;2023-11-18T02:02:43;10.33;;;6.53;;
5869;SDS011;2961;47.702;9.410;2023-11-18T02:05:10;8.50;;;6.90;;
5869;SDS011;2961;47.702;9.410;2023-11-18T02:07:37;6.97;;;5.90;;
5869;SDS011;2961;47.702;9.410;2023-11-18T02:10:05;8.00;;;5.77;;
5869;SDS011;2961;47.702;9.410;2023-11-18T02:12:36;8.97;;;7.07;;
5869;SDS011;2961;47.702;9.410;2023-11-18T02:15:10;8.53;;;6.13;;
5869;SDS011;2961;47.702;9.410;2023-11-18T02:17:38;6.93;;;5.83;;
5869;SDS011;2961;47.702;9.410;2023-11-18T02:20:07;5.77;;;5.23;;
5869;SDS011;2961;47.702;9.410;2023-11-18T02:22:40;8.80;;;6.60;;
5869;SDS011;2961;47.702;9.410;2023-11-18T02:25:09;6.77;;;6.17;;
5869;SDS011;2961;47.702;9.410;2023-11-18T02:27:37;7.17;;;5.93;;
5869;SDS011;2961;47.702;9.410;2023-11-18T02:30:05;12.40;;;8.23;;
5869;SDS011;2961;47.702;9.410;2023-11-18T02:32:38;9.93;;;8.30;;
5869;SDS011;2961;47.702;9.410;2023-11-18T02:35:13;12.20;;;8.30;;
5869;SDS011;2961;47.702;9.410;2023-11-18T02:37:47;9.30;;;7.70;;
5869;SDS011;2961;47.702;9.410;2023-11-18T02:40:19;7.67;;;6.57;;
5869;SDS011;2961;47.702;9.410;2023-11-18T02:42:48;8.33;;;7.13;;
5869;SDS011;2961;47.702;9.410;2023-11-18T02:45:19;7.97;;;6.70;;
5869;SDS011;2961;47.702;9.410;2023-11-18T02:47:47;6.97;;;6.00;;
5869;SDS011;2961;47.702;9.410;2023-11-18T02:50:14;6.50;;;5.73;;
5869;SDS011;2961;47.702;9.410;2023-11-18T02:52:44;6.73;;;5.73;;
5869;SDS011;2961;47.702;9.410;2023-11-18T02:55:11;6.33;;;5.60;;
5869;SDS011;2961;47.702;9.410;2023-11-18T02:57:38;6.83;;;4.33;;
5869;SDS011;2961;47.702;9.410;2023-11-18T03:00:07;7.00;;;5.90;;
5869;SDS011;2961;47.702;9.410;2023-11-18T03:02:37;6.20;;;5.60;;
5869;SDS011;2961;47.702;9.410;2023-11-18T03:05:04;5.30;;;4.77;;
5869;SDS011;2961;47.702;9.410;2023-11-18T03:07:32;6.60;;;5.77;;
5869;SDS011;2961;47.702;9.410;2023-11-18T03:09:59;5.80;;;5.30;;
5869;SDS011;2961;47.702;9.410;2023-11-18T03:12:26;5.07;;;4.63;;
5869;SDS011;2961;47.702;9.410;2023-11-18T03:14:53;9.87;;;5.97;;
5869;SDS011;2961;47.702;9.410;2023-11-18T03:17:21;5.77;;;5.27;;
5869;SDS011;2961;47.702;9.410;2023-11-18T03:19:48;5.97;;;5.30;;
5869;SDS011;2961;47.702;9.410;2023-11-18T03:22:15;7.03;;;5.50;;
5869;SDS011;2961;47.702;9.410;2023-11-18T03:24:42;8.30;;;5.80;;
5869;SDS011;2961;47.702;9.410;2023-11-18T03:27:08;7.17;;;6.23;;
5869;SDS011;2961;47.702;9.410;2023-11-18T03:29:36;8.87;;;7.00;;
5869;SDS011;2961;47.702;9.410;2023-11-18T03:32:03;9.03;;;6.43;;
5869;SDS011;2961;47.702;9.410;2023-11-18T03:34:32;8.27;;;5.90;;
5869;SDS011;2961;47.702;9.410;2023-11-18T03:36:59;7.67;;;6.90;;
5869;SDS011;2961;47.702;9.410;2023-11-18T03:39:25;7.97;;;6.37;;
5869;SDS011;2961;47.702;9.410;2023-11-18T03:41:52;8.30;;;6.13;;
5869;SDS011;2961;47.702;9.410;2023-11-18T03:44:22;6.73;;;5.53;;
5869;SDS011;2961;47.702;9.410;2023-11-18T03:46:49;9.40;;;6.03;;
5869;SDS011;2961;47.702;9.410;2023-11-18T03:49:15;6.97;;;5.33;;
5869;SDS011;2961;47.702;9.410;2023-11-18T03:51:42;6.57;;;5.47;;
5869;SDS011;2961;47.702;9.410;2023-11-18T03:54:09;12.87;;;6.37;;
5869;SDS011;2961;47.702;9.410;2023-11-18T03:56:37;5.17;;;4.43;;
5869;SDS011;2961;47.702;9.410;2023-11-18T03:59:04;5.53;;;4.63;;
5869;SDS011;2961;47.702;9.410;2023-11-18T04:01:31;7.40;;;5.87;;
5869;SDS011;2961;47.702;9.410;2023-11-18T04:03:59;6.90;;;5.53;;
5869;SDS011;2961;47.702;9.410;2023-11-18T04:06:26;7.50;;;5.53;;
5869;SDS011;2961;47.702;9.410;2023-11-18T04:08:54;6.17;;;4.87;;
5869;SDS011;2961;47.702;9.410;2023-11-18T04:11:21;6.47;;;5.87;;
5869;SDS011;2961;47.702;9.410;2023-11-18T04:13:48;9.50;;;5.47;;
5869;SDS011;2961;47.702;9.410;2023-11-18T04:16:15;8.80;;;6.13;;
5869;SDS011;2961;47.702;9.410;2023-11-18T04:18:44;7.40;;;5.93;;
5869;SDS011;2961;47.702;9.410;2023-11-18T04:21:11;9.20;;;6.63;;
5869;SDS011;2961;47.702;9.410;2023-11-18T04:23:40;8.03;;;6.43;;
5869;SDS011;2961;47.702;9.410;2023-11-18T04:26:09;7.50;;;6.63;;
5869;SDS011;2961;47.702;9.410;2023-11-18T04:28:36;7.90;;;5.80;;
5869;SDS011;2961;47.702;9.410;2023-11-18T04:31:03;7.27;;;5.07;;
5869;SDS011;2961;47.702;9.410;2023-11-18T04:33:31;14.40;;;6.87;;
5869;SDS011;2961;47.702;9.410;2023-11-18T04:35:58;6.53;;;5.07;;
5869;SDS011;2961;47.702;9.410;2023-11-18T04:38:25;9.27;;;7.10;;
5869;SDS011;2961;47.702;9.410;2023-11-18T04:40:52;8.60;;;6.10;;
5869;SDS011;2961;47.702;9.410;2023-11-18T04:43:21;10.43;;;6.77;;
5869;SDS011;2961;47.702;9.410;2023-11-18T04:45:48;8.13;;;6.43;;
5869;SDS011;2961;47.702;9.410;2023-11-18T04:48:15;9.63;;;6.43;;
5869;SDS011;2961;47.702;9.410;2023-11-18T04:50:42;6.60;;;5.87;;
5869;SDS011;2961;47.702;9.410;2023-11-18T04:53:09;7.50;;;6.00;;
5869;SDS011;2961;47.702;9.410;2023-11-18T04:55:37;7.27;;;5.93;;
5869;SDS011;2961;47.702;9.410;2023-11-18T04:58:04;7.60;;;5.90;;
5869;SDS011;2961;47.702;9.410;2023-11-18T05:00:32;7.37;;;6.33;;
5869;SDS011;2961;47.702;9.410;2023-11-18T05:03:00;6.57;;;5.87;;
5869;SDS011;2961;47.702;9.410;2023-11-18T05:05:28;8.93;;;6.53;;
5869;SDS011;2961;47.702;9.410;2023-11-18T05:07:55;9.17;;;6.93;;
5869;SDS011;2961;47.702;9.410;2023-11-18T05:10:22;6.93;;;6.10;;
5869;SDS011;2961;47.702;9.410;2023-11-18T05:12:49;9.73;;;5.13;;
5869;SDS011;2961;47.702;9.410;2023-11-18T05:15:20;8.23;;;6.53;;
5869;SDS011;2961;47.702;9.410;2023-11-18T05:17:51;5.73;;;5.13;;
5869;SDS011;2961;47.702;9.410;2023-11-18T05:20:18;8.87;;;6.17;;
5869;SDS011;2961;47.702;9.410;2023-11-18T05:22:45;9.93;;;6.70;;
5869;SDS011;2961;47.702;9.410;2023-11-18T05:25:12;7.33;;;6.57;;
5869;SDS011;2961;47.702;9.410;2023-11-18T05:27:39;7.77;;;6.47;;
5869;SDS011;2961;47.702;9.410;2023-11-18T05:30:06;8.37;;;6.33;;
5869;SDS011;2961;47.702;9.410;2023-11-18T05:32:34;7.27;;;5.83;;
5869;SDS011;2961;47.702;9.410;2023-11-18T05:35:03;8.60;;;5.90;;
5869;SDS011;2961;47.702;9.410;2023-11-18T05:37:31;10.03;;;6.70;;
5869;SDS011;2961;47.702;9.410;2023-11-18T05:40:00;16.93;;;9.20;;
5869;SDS011;2961;47.702;9.410;2023-11-18T05:42:31;9.90;;;6.67;;
5869;SDS011;2961;47.702;9.410;2023-11-18T05:44:58;9.07;;;7.17;;
5869;SDS011;2961;47.702;9.410;2023-11-18T05:47:26;14.57;;;7.73;;
5869;SDS011;2961;47.702;9.410;2023-11-18T05:49:53;6.70;;;5.40;;
5869;SDS011;2961;47.702;9.410;2023-11-18T05:52:22;4.67;;;4.27;;
5869;SDS011;2961;47.702;9.410;2023-11-18T05:54:48;4.20;;;3.80;;
5869;SDS011;2961;47.702;9.410;2023-11-18T05:57:15;4.33;;;4.00;;
5869;SDS011;2961;47.702;9.410;2023-11-18T05:59:42;7.97;;;5.20;;
5869;SDS011;2961;47.702;9.410;2023-11-18T06:02:09;5.03;;;4.53;;
5869;SDS011;2961;47.702;9.410;2023-11-18T06:04:38;7.10;;;5.20;;
5869;SDS011;2961;47.702;9.410;2023-11-18T06:07:07;5.17;;;3.90;;
5869;SDS011;2961;47.702;9.410;2023-11-18T06:09:35;6.30;;;5.07;;
5869;SDS011;2961;47.702;9.410;2023-11-18T06:12:02;9.50;;;6.10;;
5869;SDS011;2961;47.702;9.410;2023-11-18T06:14:33;6.10;;;5.50;;
5869;SDS011;2961;47.702;9.410;2023-11-18T06:17:00;7.10;;;6.40;;
5869;SDS011;2961;47.702;9.410;2023-11-18T06:19:27;7.00;;;5.80;;
5869;SDS011;2961;47.702;9.410;2023-11-18T06:21:54;9.70;;;7.33;;
5869;SDS011;2961;47.702;9.410;2023-11-18T06:24:21;10.10;;;7.27;;
5869;SDS011;2961;47.702;9.410;2023-11-18T06:26:49;10.43;;;8.20;;
5869;SDS011;2961;47.702;9.410;2023-11-18T06:29:16;12.27;;;7.17;;
5869;SDS011;2961;47.702;9.410;2023-11-18T06:31:43;9.40;;;6.93;;
5869;SDS011;2961;47.702;9.410;2023-11-18T06:34:10;9.60;;;6.80;;
5869;SDS011;2961;47.702;9.410;2023-11-18T06:36:37;12.67;;;8.23;;
5869;SDS011;2961;47.702;9.410;2023-11-18T06:39:04;10.77;;;7.90;;
5869;SDS011;2961;47.702;9.410;2023-11-18T06:41:33;13.67;;;7.80;;
5869;SDS011;2961;47.702;9.410;2023-11-18T06:44:03;12.63;;;8.83;;
5869;SDS011;2961;47.702;9.410;2023-11-18T06:46:37;14.23;;;9.03;;
5869;SDS011;2961;47.702;9.410;2023-11-18T06:49:05;12.73;;;8.33;;
5869;SDS011;2961;47.702;9.410;2023-11-18T06:51:33;9.80;;;7.00;;
5869;SDS011;2961;47.702;9.410;2023-11-18T06:54:03;13.67;;;7.77;;
5869;SDS011;2961;47.702;9.410;2023-11-18T06:56:34;10.40;;;7.33;;
5869;SDS011;2961;47.702;9.410;2023-11-18T06:59:03;13.00;;;7.40;;
5869;SDS011;2961;47.702;9.410;2023-11-18T07:01:31;13.40;;;8.57;;
5869;SDS011;2961;47.702;9.410;2023-11-18T07:03:58;11.03;;;8.33;;
5869;SDS011;2961;47.702;9.410;2023-11-18T07:06:25;13.07;;;8.10;;
5869;SDS011;2961;47.702;9.410;2023-11-18T07:08:53;19.10;;;11.20;;
5869;SDS011;2961;47.702;9.410;2023-11-18T07:11:21;19.40;;;11.93;;
5869;SDS011;2961;47.702;9.410;2023-11-18T07:13:48;21.53;;;12.00;;
5869;SDS011;2961;47.702;9.410;2023-11-18T07:16:16;25.50;;;12.37;;
5869;SDS011;2961;47.702;9.410;2023-11-18T07:18:43;18.37;;;11.97;;
5869;SDS011;2961;47.702;9.410;2023-11-18T07:21:10;26.57;;;12.37;;
5869;SDS011;2961;47.702;9.410;2023-11-18T07:23:39;21.37;;;12.53;;
5869;SDS011;2961;47.702;9.410;2023-11-18T07:26:07;27.83;;;14.50;;
5869;SDS011;2961;47.702;9.410;2023-11-18T07:28:35;21.83;;;13.77;;
5869;SDS011;2961;47.702;9.410;2023-11-18T07:31:02;26.40;;;15.23;;
5869;SDS011;2961;47.702;9.410;2023-11-18T07:33:31;22.43;;;12.73;;
5869;SDS011;2961;47.702;9.410;2023-11-18T07:35:58;22.97;;;13.93;;
5869;SDS011;2961;47.702;9.410;2023-11-18T07:38:25;32.77;;;15.33;;
5869;SDS011;2961;47.702;9.410;2023-11-18T07:40:52;25.17;;;14.03;;
5869;SDS011;2961;47.702;9.410;2023-11-18T07:43:21;21.70;;;13.90;;
5869;SDS011;2961;47.702;9.410;2023-11-18T07:45:48;22.20;;;12.83;;
5869;SDS011;2961;47.702;9.410;2023-11-18T07:48:17;20.97;;;12.37;;
5869;SDS011;2961;47.702;9.410;2023-11-18T07:50:47;26.97;;;15.03;;
5869;SDS011;2961;47.702;9.410;2023-11-18T07:53:14;26.23;;;14.23;;
5869;SDS011;2961;47.702;9.410;2023-11-18T07:55:41;26.57;;;14.50;;
5869;SDS011;2961;47.702;9.410;2023-11-18T07:58:08;30.60;;;15.67;;
5869;SDS011;2961;47.702;9.410;2023-11-18T08:00:36;22.20;;;13.70;;
5869;SDS011;2961;47.702;9.410;2023-11-18T08:03:04;21.80;;;12.87;;
5869;SDS011;2961;47.702;9.410;2023-11-18T08:05:32;30.87;;;16.00;;
5869;SDS011;2961;47.702;9.410;2023-11-18T08:08:00;25.20;;;13.80;;
5869;SDS011;2961;47.702;9.410;2023-11-18T08:10:27;29.83;;;14.83;;
5869;SDS011;2961;47.702;9.410;2023-11-18T08:12:57;31.23;;;16.03;;
5869;SDS011;2961;47.702;9.410;2023-11-18T08:15:27;24.57;;;13.77;;
5869;SDS011;2961;47.702;9.410;2023-11-18T08:17:54;24.80;;;13.93;;
5869;SDS011;2961;47.702;9.410;2023-11-18T08:20:21;31.70;;;15.27;;
5869;SDS011;2961;47.702;9.410;2023-11-18T08:22:50;26.35;;;16.38;;
5869;SDS011;2961;47.702;9.410;2023-11-18T08:25:19;24.93;;;16.43;;
5869;SDS011;2961;47.702;9.410;2023-11-18T08:27:46;22.53;;;15.00;;
5869;SDS011;2961;47.702;9.410;2023-11-18T08:30:14;24.13;;;13.80;;
5869;SDS011;2961;47.702;9.410;2023-11-18T08:32:43;22.53;;;13.07;;
5869;SDS011;2961;47.702;9.410;2023-11-18T08:35:11;21.27;;;13.57;;
5869;SDS011;2961;47.702;9.410;2023-11-18T08:37:39;20.00;;;13.10;;
5869;SDS011;2961;47.702;9.410;2023-11-18T08:40:07;18.20;;;12.80;;
5869;SDS011;2961;47.702;9.410;2023-11-18T08:42:41;22.77;;;13.67;;
5869;SDS011;2961;47.702;9.410;2023-11-18T08:45:13;22.30;;;13.40;;
5869;SDS011;2961;47.702;9.410;2023-11-18T08:47:42;17.73;;;13.17;;
5869;SDS011;2961;47.702;9.410;2023-11-18T08:50:09;23.67;;;12.70;;
5869;SDS011;2961;47.702;9.410;2023-11-18T08:52:37;25.70;;;12.13;;
5869;SDS011;2961;47.702;9.410;2023-11-18T08:55:08;21.30;;;13.60;;
5869;SDS011;2961;47.702;9.410;2023-11-18T08:57:43;23.80;;;12.87;;
5869;SDS011;2961;47.702;9.410;2023-11-18T09:00:22;21.10;;;12.80;;
5869;SDS011;2961;47.702;9.410;2023-11-18T09:03:07;21.50;;;11.97;;
5869;SDS011;2961;47.702;9.410;2023-11-18T09:05:42;16.95;;;12.75;;
5869;SDS011;2961;47.702;9.410;2023-11-18T09:08:21;16.37;;;11.63;;
5869;SDS011;2961;47.702;9.410;2023-11-18T09:10:49;15.60;;;10.80;;
5869;SDS011;2961;47.702;9.410;2023-11-18T09:13:20;15.20;;;11.00;;
5869;SDS011;2961;47.702;9.410;2023-11-18T09:15:47;16.27;;;10.33;;
5869;SDS011;2961;47.702;9.410;2023-11-18T09:18:14;14.60;;;9.87;;
5869;SDS011;2961;47.702;9.410;2023-11-18T09:20:43;11.57;;;9.43;;
5869;SDS011;2961;47.702;9.410;2023-11-18T09:23:10;12.50;;;9.43;;
5869;SDS011;2961;47.702;9.410;2023-11-18T09:25:38;14.57;;;9.40;;
5869;SDS011;2961;47.702;9.410;2023-11-18T09:28:06;12.23;;;9.30;;
5869;SDS011;2961;47.702;9.410;2023-11-18T09:30:36;12.00;;;10.23;;
5869;SDS011;2961;47.702;9.410;2023-11-18T09:33:14;15.43;;;10.13;;
5869;SDS011;2961;47.702;9.410;2023-11-18T09:35:50;13.53;;;10.77;;
5869;SDS011;2961;47.702;9.410;2023-11-18T09:38:21;13.27;;;10.10;;
5869;SDS011;2961;47.702;9.410;2023-11-18T09:40:48;15.60;;;9.97;;
5869;SDS011;2961;47.702;9.410;2023-11-18T09:43:18;11.00;;;8.90;;
5869;SDS011;2961;47.702;9.410;2023-11-18T09:45:49;11.33;;;9.97;;
5869;SDS011;2961;47.702;9.410;2023-11-18T09:48:33;13.53;;;9.20;;
5869;SDS011;2961;47.702;9.410;2023-11-18T09:51:05;12.07;;;9.90;;
5869;SDS011;2961;47.702;9.410;2023-11-18T09:53:34;12.20;;;8.30;;
5869;SDS011;2961;47.702;9.410;2023-11-18T09:56:06;9.13;;;8.00;;
5869;SDS011;2961;47.702;9.410;2023-11-18T09:58:45;9.50;;;7.50;;
5869;SDS011;2961;47.702;9.410;2023-11-18T10:01:25;11.77;;;8.63;;
5869;SDS011;2961;47.702;9.410;2023-11-18T10:04:01;7.50;;;6.70;;
5869;SDS011;2961;47.702;9.410;2023-11-18T10:06:31;15.50;;;8.40;;
5869;SDS011;2961;47.702;9.410;2023-11-18T10:09:00;13.93;;;6.88;;
5869;SDS011;2961;47.702;9.410;2023-11-18T10:11:40;9.60;;;8.00;;
5869;SDS011;2961;47.702;9.410;2023-11-18T10:14:07;7.97;;;6.93;;
5869;SDS011;2961;47.702;9.410;2023-11-18T10:16:37;8.30;;;7.40;;
5869;SDS011;2961;47.702;9.410;2023-11-18T10:19:04;13.20;;;8.10;;
5869;SDS011;2961;47.702;9.410;2023-11-18T10:21:36;7.17;;;6.47;;
5869;SDS011;2961;47.702;9.410;2023-11-18T10:24:05;7.90;;;7.10;;
5869;SDS011;2961;47.702;9.410;2023-11-18T10:26:45;8.63;;;7.77;;
5869;SDS011;2961;47.702;9.410;2023-11-18T10:29:20;8.00;;;7.20;;
5869;SDS011;2961;47.702;9.410;2023-11-18T10:31:48;8.60;;;7.43;;
5869;SDS011;2961;47.702;9.410;2023-11-18T10:34:18;8.03;;;7.00;;
5869;SDS011;2961;47.702;9.410;2023-11-18T10:36:58;8.13;;;7.10;;
5869;SDS011;2961;47.702;9.410;2023-11-18T10:39:27;9.93;;;7.03;;
5869;SDS011;2961;47.702;9.410;2023-11-18T10:41:57;8.87;;;7.30;;
5869;SDS011;2961;47.702;9.410;2023-11-18T10:44:25;9.93;;;6.57;;
5869;SDS011;2961;47.702;9.410;2023-11-18T10:46:53;7.60;;;6.80;;
5869;SDS011;2961;47.702;9.410;2023-11-18T10:49:23;9.38;;;6.50;;
5869;SDS011;2961;47.702;9.410;2023-11-18T10:51:50;7.10;;;6.30;;
5869;SDS011;2961;47.702;9.410;2023-11-18T10:54:17;7.67;;;5.97;;
5869;SDS011;2961;47.702;9.410;2023-11-18T10:56:47;6.80;;;6.10;;
5869;SDS011;2961;47.702;9.410;2023-11-18T10:59:15;7.80;;;6.60;;
5869;SDS011;2961;47.702;9.410;2023-11-18T11:01:43;6.77;;;5.47;;
5869;SDS011;2961;47.702;9.410;2023-11-18T11:04:45;4.63;;;4.23;;
5869;SDS011;2961;47.702;9.410;2023-11-18T11:07:14;4.53;;;4.23;;
5869;SDS011;2961;47.702;9.410;2023-11-18T11:09:44;4.17;;;3.70;;
5869;SDS011;2961;47.702;9.410;2023-11-18T11:12:11;4.63;;;4.10;;
5869;SDS011;2961;47.702;9.410;2023-11-18T11:14:42;4.90;;;4.13;;
5869;SDS011;2961;47.702;9.410;2023-11-18T11:17:19;5.10;;;4.70;;
5869;SDS011;2961;47.702;9.410;2023-11-18T11:19:55;4.47;;;4.10;;
5869;SDS011;2961;47.702;9.410;2023-11-18T11:22:37;5.13;;;4.63;;
5869;SDS011;2961;47.702;9.410;2023-11-18T11:25:09;5.13;;;4.17;;
5869;SDS011;2961;47.702;9.410;2023-11-18T11:27:50;3.53;;;3.23;;
5869;SDS011;2961;47.702;9.410;2023-11-18T11:30:28;3.40;;;3.20;;
5869;SDS011;2961;47.702;9.410;2023-11-18T11:32:59;3.50;;;3.10;;
5869;SDS011;2961;47.702;9.410;2023-11-18T11:35:40;5.10;;;3.17;;
5869;SDS011;2961;47.702;9.410;2023-11-18T11:38:09;4.57;;;4.03;;
5869;SDS011;2961;47.702;9.410;2023-11-18T11:40:38;3.93;;;3.40;;
5869;SDS011;2961;47.702;9.410;2023-11-18T11:43:08;3.17;;;2.93;;
5869;SDS011;2961;47.702;9.410;2023-11-18T11:45:36;3.27;;;2.93;;
5869;SDS011;2961;47.702;9.410;2023-11-18T11:48:06;3.40;;;2.80;;
5869;SDS011;2961;47.702;9.410;2023-11-18T11:50:47;3.67;;;3.10;;
5869;SDS011;2961;47.702;9.410;2023-11-18T11:53:22;3.20;;;2.90;;
5869;SDS011;2961;47.702;9.410;2023-11-18T11:55:56;2.93;;;2.73;;
5869;SDS011;2961;47.702;9.410;2023-11-18T11:58:30;3.03;;;2.83;;
5869;SDS011;2961;47.702;9.410;2023-11-18T12:00:58;5.40;;;2.60;;
5869;SDS011;2961;47.702;9.410;2023-11-18T12:03:30;3.00;;;2.80;;
5869;SDS011;2961;47.702;9.410;2023-11-18T12:06:02;2.73;;;2.53;;
5869;SDS011;2961;47.702;9.410;2023-11-18T12:08:35;2.30;;;2.20;;
5869;SDS011;2961;47.702;9.410;2023-11-18T12:11:02;3.20;;;3.00;;
5869;SDS011;2961;47.702;9.410;2023-11-18T12:13:35;3.33;;;3.10;;
5869;SDS011;2961;47.702;9.410;2023-11-18T12:16:05;2.43;;;2.33;;
5869;SDS011;2961;47.702;9.410;2023-11-18T12:18:35;4.77;;;2.30;;
5869;SDS011;2961;47.702;9.410;2023-11-18T12:21:04;2.13;;;2.03;;
5869;SDS011;2961;47.702;9.410;2023-11-18T12:23:36;3.10;;;2.10;;
5869;SDS011;2961;47.702;9.410;2023-11-18T12:26:38;2.00;;;1.93;;
5869;SDS011;2961;47.702;9.410;2023-11-18T12:29:22;3.50;;;2.17;;
5869;SDS011;2961;47.702;9.410;2023-11-18T12:31:57;3.00;;;2.30;;
5869;SDS011;2961;47.702;9.410;2023-11-18T12:34:23;2.47;;;2.27;;
5869;SDS011;2961;47.702;9.410;2023-11-18T12:37:11;5.80;;;1.50;;
5869;SDS011;2961;47.702;9.410;2023-11-18T12:40:13;1.87;;;1.77;;
5869;SDS011;2961;47.702;9.410;2023-11-18T12:43:03;1.80;;;1.70;;
5869;SDS011;2961;47.702;9.410;2023-11-18T12:48:41;3.20;;;1.70;;
5869;SDS011;2961;47.702;9.410;2023-11-18T12:51:11;2.00;;;1.90;;
5869;SDS011;2961;47.702;9.410;2023-11-18T12:53:48;3.03;;;2.83;;
5869;SDS011;2961;47.702;9.410;2023-11-18T12:56:18;2.13;;;1.90;;
5869;SDS011;2961;47.702;9.410;2023-11-18T12:58:48;1.87;;;1.77;;
5869;SDS011;2961;47.702;9.410;2023-11-18T13:01:15;2.93;;;1.73;;
5869;SDS011;2961;47.702;9.410;2023-11-18T13:03:44;2.20;;;2.10;;
5869;SDS011;2961;47.702;9.410;2023-11-18T13:06:12;1.67;;;1.57;;
5869;SDS011;2961;47.702;9.410;2023-11-18T13:08:39;1.60;;;1.50;;
5869;SDS011;2961;47.702;9.410;2023-11-18T13:11:07;13.07;;;1.70;;
5869;SDS011;2961;47.702;9.410;2023-11-18T13:13:40;1.70;;;1.60;;
5869;SDS011;2961;47.702;9.410;2023-11-18T13:16:08;2.80;;;2.00;;
5869;SDS011;2961;47.702;9.410;2023-11-18T13:18:41;1.80;;;1.70;;
5869;SDS011;2961;47.702;9.410;2023-11-18T13:21:13;2.23;;;2.00;;
5869;SDS011;2961;47.702;9.410;2023-11-18T13:23:41;1.57;;;1.47;;
5869;SDS011;2961;47.702;9.410;2023-11-18T13:26:12;4.20;;;2.37;;
5869;SDS011;2961;47.702;9.410;2023-11-18T13:28:39;1.87;;;1.77;;
5869;SDS011;2961;47.702;9.410;2023-11-18T13:31:06;6.40;;;1.93;;
5869;SDS011;2961;47.702;9.410;2023-11-18T13:33:36;8.90;;;8.10;;
5869;SDS011;2961;47.702;9.410;2023-11-18T13:36:04;7.30;;;6.80;;
5869;SDS011;2961;47.702;9.410;2023-11-18T13:38:31;3.27;;;3.07;;
5869;SDS011;2961;47.702;9.410;2023-11-18T13:40:58;5.10;;;2.13;;
5869;SDS011;2961;47.702;9.410;2023-11-18T13:43:29;3.47;;;3.27;;
5869;SDS011;2961;47.702;9.410;2023-11-18T13:46:09;2.60;;;2.40;;
5869;SDS011;2961;47.702;9.410;2023-11-18T13:48:38;3.20;;;2.90;;
5869;SDS011;2961;47.702;9.410;2023-11-18T13:51:06;3.50;;;3.30;;
5869;SDS011;2961;47.702;9.410;2023-11-18T13:53:34;4.47;;;3.30;;
5869;SDS011;2961;47.702;9.410;2023-11-18T13:56:01;9.20;;;7.33;;
5869;SDS011;2961;47.702;9.410;2023-11-18T13:58:30;7.73;;;4.93;;
5869;SDS011;2961;47.702;9.410;2023-11-18T14:00:59;3.00;;;2.70;;
5869;SDS011;2961;47.702;9.410;2023-11-18T14:03:26;3.47;;;3.27;;
5869;SDS011;2961;47.702;9.410;2023-11-18T14:05:52;3.50;;;3.00;;
5869;SDS011;2961;47.702;9.410;2023-11-18T14:08:26;3.57;;;2.90;;
5869;SDS011;2961;47.702;9.410;2023-11-18T14:10:54;4.67;;;3.43;;
5869;SDS011;2961;47.702;9.410;2023-11-18T14:13:21;5.73;;;3.77;;
5869;SDS011;2961;47.702;9.410;2023-11-18T14:15:49;5.50;;;3.07;;
5869;SDS011;2961;47.702;9.410;2023-11-18T14:18:20;3.60;;;3.20;;
5869;SDS011;2961;47.702;9.410;2023-11-18T14:20:47;3.20;;;2.97;;
5869;SDS011;2961;47.702;9.410;2023-11-18T14:23:14;7.33;;;3.00;;
5869;SDS011;2961;47.702;9.410;2023-11-18T14:25:43;3.57;;;3.27;;
5869;SDS011;2961;47.702;9.410;2023-11-18T14:28:10;5.60;;;4.20;;
5869;SDS011;2961;47.702;9.410;2023-11-18T14:30:38;4.03;;;3.73;;
5869;SDS011;2961;47.702;9.410;2023-11-18T14:33:06;3.60;;;3.30;;
5869;SDS011;2961;47.702;9.410;2023-11-18T14:35:33;3.50;;;3.20;;
5869;SDS011;2961;47.702;9.410;2023-11-18T14:38:00;3.63;;;2.70;;
5869;SDS011;2961;47.702;9.410;2023-11-18T14:40:30;2.73;;;2.53;;
5869;SDS011;2961;47.702;9.410;2023-11-18T14:42:57;3.20;;;2.90;;
5869;SDS011;2961;47.702;9.410;2023-11-18T14:45:24;2.87;;;2.57;;
5869;SDS011;2961;47.702;9.410;2023-11-18T14:47:51;3.20;;;3.00;;
5869;SDS011;2961;47.702;9.410;2023-11-18T14:50:22;3.23;;;2.80;;
5869;SDS011;2961;47.702;9.410;2023-11-18T14:52:51;3.27;;;3.07;;
5869;SDS011;2961;47.702;9.410;2023-11-18T14:55:24;3.37;;;3.17;;
5869;SDS011;2961;47.702;9.410;2023-11-18T14:57:51;4.23;;;3.20;;
5869;SDS011;2961;47.702;9.410;2023-11-18T15:00:18;2.77;;;2.57;;
5869;SDS011;2961;47.702;9.410;2023-11-18T15:02:47;5.27;;;3.03;;
5869;SDS011;2961;47.702;9.410;2023-11-18T15:05:15;2.97;;;2.77;;
5869;SDS011;2961;47.702;9.410;2023-11-18T15:07:45;3.03;;;2.83;;
5869;SDS011;2961;47.702;9.410;2023-11-18T15:10:16;3.77;;;3.00;;
5869;SDS011;2961;47.702;9.410;2023-11-18T15:12:47;3.47;;;3.03;;
5869;SDS011;2961;47.702;9.410;2023-11-18T15:15:18;5.13;;;4.63;;
5869;SDS011;2961;47.702;9.410;2023-11-18T15:17:46;9.27;;;4.60;;
5869;SDS011;2961;47.702;9.410;2023-11-18T15:20:14;9.57;;;5.70;;
5869;SDS011;2961;47.702;9.410;2023-11-18T15:22:43;4.50;;;4.10;;
5869;SDS011;2961;47.702;9.410;2023-11-18T15:25:12;4.67;;;4.37;;
5869;SDS011;2961;47.702;9.410;2023-11-18T15:27:40;4.20;;;3.80;;